Onweer radar Meer informatie blitzortung!


Regen radar Meer informatie rain snow radar


Bezoek onze andere website:

Template documentation
and downloads

And another site



METAR rapporten vliegvelden

   
EHVK - Volkel Rnlafb, Netherlands
Afstand tot: ZW 18 km
Gewijzigd: 18-09-2020 20:55
Helder  
Helder  
   Wind: ONO 16.7 km/h
Wind: ONO 16.7 km/h
Temperatuur: 15°C
Dauwpunt: 6°C
Vochtigheid: 55%
Barometer: 1021 hPa
Bewolking: Helder
Zicht: meer dan 10 km
Bewolking: Helder
EHVK 181855Z AUTO 06009KT 9999 NCD 15/06 Q1021 BLU
EDLV - Niederrhein, Germany
Afstand tot: ZO 25 km
Gewijzigd: 18-09-2020 20:50
Helder  
Helder  
   Wind: ONO 7.4 km/h
Wind: ONO 7.4 km/h
Temperatuur: 18°C
Dauwpunt: 6°C
Vochtigheid: 46%
Barometer: 1022 hPa
Zicht: meer dan 10 km
Bewolking: Helder
EDLV 181850Z 06004KT 030V110 CAVOK 18/06 Q1022
EHDL - Deelen Rnlafb, Netherlands
Afstand tot: N 35 km
Gewijzigd: 18-09-2020 20:55
Helder  
Helder  
   Wind: ONO 16.7 km/h
Wind: ONO 16.7 km/h
Temperatuur: 15°C
Dauwpunt: 7°C
Vochtigheid: 59%
Barometer: 1022 hPa
Bewolking: Helder
Zicht: meer dan 10 km
Bewolking: Helder
EHDL 181855Z AUTO 06009KT 330V130 9999 NCD 15/07 Q1022 BLU
EHEH - Eindhoven Rnlafb, Netherlands
Afstand tot: ZW 48 km
Gewijzigd: 18-09-2020 20:55
Helder  
Helder  
   Wind: ONO 16.7 km/h
Wind: ONO 16.7 km/h
Temperatuur: 19°C
Dauwpunt: 6°C
Vochtigheid: 43%
Barometer: 1021 hPa
Bewolking: Helder
Zicht: meer dan 10 km
Bewolking: Helder
EHEH 181855Z AUTO 06009KT 030V100 9999 NCD 19/06 Q1021 BLU NOSIG
EHGR - Gilze-Rijen Rnla, Netherlands
Afstand tot: WZW 70 km
Gewijzigd: 18-09-2020 20:55
Helder  
Helder  
   Wind: ONO 16.7 km/h
Wind: ONO 16.7 km/h
Temperatuur: 18°C
Dauwpunt: 7°C
Vochtigheid: 49%
Barometer: 1021 hPa
Bewolking: Helder
Zicht: meer dan 10 km
Bewolking: Helder
EHGR 181855Z AUTO 06009KT 020V120 9999 NCD 18/07 Q1021 BLU
EBBL - Kleine-Brogel(Ba, Belgium
Afstand tot: ZZW 71 km
Gewijzigd: 18-09-2020 20:55
Helder  
Helder  
   Wind: ONO 16.7 km/h
Wind: ONO 16.7 km/h
Temperatuur: 18°C
Dauwpunt: 7°C
Vochtigheid: 49%
Barometer: 1020 hPa
Bewolking: Helder
Zicht: meer dan 10 km
Bewolking: Helder
EBBL 181855Z AUTO 06009KT 9999 NCD 18/07 Q1020 BLU

Script ontwikkeld door  Saratoga-weather.org Aangepast voor de template door  Weerstation Leuven